createdAt,value
2022-11-18T00:00:27.334Z,959.32
2022-11-18T00:01:27.248Z,959.29
2022-11-18T00:02:27.207Z,959.26
2022-11-18T00:03:27.085Z,959.30
2022-11-18T00:04:27.004Z,959.32
2022-11-18T00:05:26.924Z,959.27
2022-11-18T00:06:26.843Z,959.28
2022-11-18T00:07:26.811Z,959.26
2022-11-18T00:08:26.680Z,959.26
2022-11-18T00:09:26.596Z,959.23
2022-11-18T00:10:26.518Z,959.22
2022-11-18T00:11:26.437Z,959.22
2022-11-18T00:12:26.358Z,959.20
2022-11-18T00:13:26.274Z,959.20
2022-11-18T00:14:26.207Z,959.22
2022-11-18T00:15:31.439Z,959.19
2022-11-18T00:16:26.031Z,959.12
2022-11-18T00:17:25.950Z,959.11
2022-11-18T00:18:25.867Z,959.14
2022-11-18T00:19:25.782Z,959.09
2022-11-18T00:20:25.717Z,959.06
2022-11-18T00:21:25.624Z,959.08
2022-11-18T00:22:29.722Z,959.04
2022-11-18T00:23:25.457Z,959.05
2022-11-18T00:24:25.380Z,959.08
2022-11-18T00:25:25.298Z,959.06
2022-11-18T00:26:25.214Z,959.08
2022-11-18T00:27:25.133Z,959.08
2022-11-18T00:28:25.052Z,959.10
2022-11-18T00:29:24.973Z,959.14
2022-11-18T00:30:24.893Z,959.17
2022-11-18T00:31:24.805Z,959.18
2022-11-18T00:32:24.726Z,959.18
2022-11-18T00:33:24.650Z,959.20
2022-11-18T00:34:24.572Z,959.19
2022-11-18T00:35:24.481Z,959.16
2022-11-18T00:36:24.407Z,959.11
2022-11-18T00:37:24.331Z,959.09
2022-11-18T00:38:24.239Z,959.07
2022-11-18T00:39:24.159Z,959.09
2022-11-18T00:40:24.085Z,959.09
2022-11-18T00:41:23.991Z,959.11
2022-11-18T00:42:23.915Z,959.14
2022-11-18T00:43:23.833Z,959.14
2022-11-18T00:44:23.753Z,959.14
2022-11-18T00:45:23.666Z,959.13
2022-11-18T00:46:23.588Z,959.13
2022-11-18T00:47:23.506Z,959.10
2022-11-18T00:48:23.430Z,959.15
2022-11-18T00:49:23.347Z,959.16
2022-11-18T00:50:23.273Z,959.16
2022-11-18T00:51:23.180Z,959.17
2022-11-18T00:52:23.102Z,959.17
2022-11-18T00:53:23.084Z,959.19
2022-11-18T00:54:22.935Z,959.17
2022-11-18T00:55:22.851Z,959.16
2022-11-18T00:56:22.779Z,959.09
2022-11-18T00:57:22.693Z,959.08
2022-11-18T00:58:22.615Z,959.06
2022-11-18T00:59:22.527Z,959.01
2022-11-18T01:00:22.448Z,959.05
2022-11-18T01:01:22.414Z,959.03
2022-11-18T01:02:22.289Z,959.02
2022-11-18T01:03:22.206Z,959.02
2022-11-18T01:04:22.119Z,959.01
2022-11-18T01:05:22.049Z,959.01
2022-11-18T01:06:21.960Z,959.06
2022-11-18T01:07:21.926Z,959.09
2022-11-18T01:08:21.797Z,959.11
2022-11-18T01:09:21.716Z,959.10
2022-11-18T01:10:21.633Z,959.12
2022-11-18T01:11:21.550Z,959.11
2022-11-18T01:12:21.465Z,959.07
2022-11-18T01:13:21.393Z,959.07
2022-11-18T01:14:21.310Z,959.05
2022-11-18T01:15:21.221Z,959.09
2022-11-18T01:16:21.140Z,959.09
2022-11-18T01:17:21.071Z,959.15
2022-11-18T01:18:20.979Z,959.12
2022-11-18T01:19:20.901Z,959.10
2022-11-18T01:20:20.814Z,959.09
2022-11-18T01:21:20.734Z,959.08
2022-11-18T01:22:20.652Z,959.09
2022-11-18T01:23:20.570Z,959.06
2022-11-18T01:24:20.490Z,959.08
2022-11-18T01:25:20.415Z,959.09
2022-11-18T01:26:20.323Z,959.14
2022-11-18T01:27:20.244Z,959.21
2022-11-18T01:28:23.575Z,959.24
2022-11-18T01:29:20.339Z,959.24
2022-11-18T01:30:20.022Z,959.26
2022-11-18T01:31:19.920Z,959.26
2022-11-18T01:32:24.860Z,959.28
2022-11-18T01:33:19.751Z,959.29
2022-11-18T01:34:19.683Z,959.34
2022-11-18T01:35:19.588Z,959.32
2022-11-18T01:36:19.507Z,959.34
2022-11-18T01:37:19.426Z,959.35
2022-11-18T01:38:19.343Z,959.33
2022-11-18T01:39:19.569Z,959.38
2022-11-18T01:40:19.188Z,959.35
2022-11-18T01:41:19.100Z,959.35
2022-11-18T01:42:19.028Z,959.36
2022-11-18T01:43:18.936Z,959.35
2022-11-18T01:44:18.851Z,959.37
2022-11-18T01:45:18.775Z,959.37
2022-11-18T01:46:18.687Z,959.36
2022-11-18T01:47:18.606Z,959.35
2022-11-18T01:48:18.525Z,959.33
2022-11-18T01:49:18.760Z,959.34
2022-11-18T01:50:18.363Z,959.32
2022-11-18T01:51:18.280Z,959.34
2022-11-18T01:52:18.194Z,959.34
2022-11-18T01:53:18.119Z,959.32
2022-11-18T01:54:18.036Z,959.35
2022-11-18T01:55:17.952Z,959.36
2022-11-18T01:56:17.868Z,959.36
2022-11-18T01:57:17.795Z,959.35
2022-11-18T01:58:17.707Z,959.41
2022-11-18T01:59:17.878Z,959.40
2022-11-18T02:00:17.547Z,959.38
2022-11-18T02:01:17.477Z,959.42
2022-11-18T02:02:17.404Z,959.37
2022-11-18T02:03:17.301Z,959.37
2022-11-18T02:04:17.217Z,959.37
2022-11-18T02:05:17.135Z,959.40
2022-11-18T02:06:17.055Z,959.41
2022-11-18T02:07:16.996Z,959.42
2022-11-18T02:08:16.883Z,959.42
2022-11-18T02:09:16.960Z,959.44
2022-11-18T02:10:16.726Z,959.44
2022-11-18T02:11:16.643Z,959.40
2022-11-18T02:12:16.614Z,959.42
2022-11-18T02:13:16.483Z,959.39
2022-11-18T02:14:16.393Z,959.40
2022-11-18T02:15:16.311Z,959.38
2022-11-18T02:16:16.260Z,959.40
2022-11-18T02:17:16.153Z,959.41
2022-11-18T02:18:16.069Z,959.42
2022-11-18T02:19:16.529Z,959.45
2022-11-18T02:20:15.900Z,959.43
2022-11-18T02:21:15.822Z,959.45
2022-11-18T02:22:15.739Z,959.46
2022-11-18T02:23:15.656Z,959.44
2022-11-18T02:24:15.578Z,959.43
2022-11-18T02:25:15.495Z,959.48
2022-11-18T02:26:15.407Z,959.42
2022-11-18T02:27:15.328Z,959.47
2022-11-18T02:28:15.249Z,959.46
2022-11-18T02:29:15.567Z,959.44
2022-11-18T02:30:15.103Z,959.44
2022-11-18T02:31:15.002Z,959.44
2022-11-18T02:32:14.917Z,959.43
2022-11-18T02:33:14.849Z,959.43
2022-11-18T02:34:14.752Z,959.41
2022-11-18T02:35:14.670Z,959.41
2022-11-18T02:36:14.591Z,959.43
2022-11-18T02:37:14.505Z,959.38
2022-11-18T02:38:14.424Z,959.38
2022-11-18T02:39:14.541Z,959.40
2022-11-18T02:40:14.257Z,959.41
2022-11-18T02:41:14.178Z,959.36
2022-11-18T02:42:14.095Z,959.38
2022-11-18T02:43:14.015Z,959.36
2022-11-18T02:44:13.929Z,959.38
2022-11-18T02:45:13.863Z,959.39
2022-11-18T02:46:13.771Z,959.38
2022-11-18T02:47:13.684Z,959.36
2022-11-18T02:48:13.598Z,959.35
2022-11-18T02:49:13.521Z,959.32
2022-11-18T02:50:13.438Z,959.29
2022-11-18T02:51:13.355Z,959.26
2022-11-18T02:52:13.272Z,959.27
2022-11-18T02:53:13.196Z,959.22
2022-11-18T02:54:13.106Z,959.23
2022-11-18T02:55:13.026Z,959.24
2022-11-18T02:56:12.947Z,959.22
2022-11-18T02:57:12.872Z,959.19
2022-11-18T02:58:12.779Z,959.25
2022-11-18T02:59:12.697Z,959.22
2022-11-18T03:00:12.619Z,959.28
2022-11-18T03:01:12.693Z,959.23
2022-11-18T03:02:12.450Z,959.23
2022-11-18T03:03:12.368Z,959.23
2022-11-18T03:04:12.287Z,959.22
2022-11-18T03:05:12.204Z,959.21
2022-11-18T03:06:12.124Z,959.25
2022-11-18T03:07:12.077Z,959.26
2022-11-18T03:08:11.956Z,959.25
2022-11-18T03:09:11.874Z,959.23
2022-11-18T03:10:11.793Z,959.25
2022-11-18T03:11:11.713Z,959.24
2022-11-18T03:12:11.639Z,959.22
2022-11-18T03:13:11.545Z,959.22
2022-11-18T03:14:11.460Z,959.22
2022-11-18T03:15:11.383Z,959.25
2022-11-18T03:16:11.296Z,959.27
2022-11-18T03:17:11.218Z,959.29
2022-11-18T03:18:11.134Z,959.30
2022-11-18T03:19:11.056Z,959.32
2022-11-18T03:20:10.972Z,959.36
2022-11-18T03:21:10.886Z,959.33
2022-11-18T03:22:10.804Z,959.36
2022-11-18T03:23:10.726Z,959.37
2022-11-18T03:24:10.640Z,959.41
2022-11-18T03:25:10.558Z,959.43
2022-11-18T03:26:10.475Z,959.47
2022-11-18T03:27:10.393Z,959.45
2022-11-18T03:28:10.311Z,959.46
2022-11-18T03:29:10.225Z,959.50
2022-11-18T03:30:10.145Z,959.51
2022-11-18T03:31:10.060Z,959.49
2022-11-18T03:32:09.984Z,959.48
2022-11-18T03:33:09.897Z,959.48
2022-11-18T03:34:09.830Z,959.49
2022-11-18T03:35:09.733Z,959.49
2022-11-18T03:36:09.648Z,959.51
2022-11-18T03:37:10.785Z,959.48
2022-11-18T03:38:09.500Z,959.48
2022-11-18T03:39:09.403Z,959.50
2022-11-18T03:40:09.318Z,959.50
2022-11-18T03:41:09.283Z,959.51
2022-11-18T03:42:09.160Z,959.53
2022-11-18T03:43:09.073Z,959.58
2022-11-18T03:44:08.989Z,959.58
2022-11-18T03:45:08.913Z,959.62
2022-11-18T03:46:08.828Z,959.63
2022-11-18T03:47:08.747Z,959.63
2022-11-18T03:48:08.662Z,959.64
2022-11-18T03:49:08.587Z,959.64
2022-11-18T03:50:08.498Z,959.64
2022-11-18T03:51:08.417Z,959.66
2022-11-18T03:52:08.334Z,959.64
2022-11-18T03:53:08.250Z,959.64
2022-11-18T03:54:08.167Z,959.65
2022-11-18T03:55:08.088Z,959.62
2022-11-18T03:56:11.563Z,959.66
2022-11-18T03:57:07.922Z,959.67
2022-11-18T03:58:07.842Z,959.67
2022-11-18T03:59:07.772Z,959.68
2022-11-18T04:00:07.675Z,959.70
2022-11-18T04:01:07.592Z,959.70
2022-11-18T04:02:07.530Z,959.73
2022-11-18T04:03:07.430Z,959.73
2022-11-18T04:04:07.343Z,959.73
2022-11-18T04:05:07.272Z,959.71
2022-11-18T04:06:07.181Z,959.70
2022-11-18T04:07:07.140Z,959.71
2022-11-18T04:08:07.013Z,959.67
2022-11-18T04:09:06.940Z,959.69
2022-11-18T04:10:06.853Z,959.67
2022-11-18T04:11:06.769Z,959.68
2022-11-18T04:12:06.686Z,959.70
2022-11-18T04:13:07.020Z,959.69
2022-11-18T04:14:06.521Z,959.66
2022-11-18T04:15:06.443Z,959.70
2022-11-18T04:16:06.362Z,959.71
2022-11-18T04:17:06.278Z,959.71
2022-11-18T04:18:06.196Z,959.73
2022-11-18T04:19:06.591Z,959.77
2022-11-18T04:20:06.031Z,959.74
2022-11-18T04:21:06.010Z,959.70
2022-11-18T04:22:05.866Z,959.77
2022-11-18T04:23:05.784Z,959.79
2022-11-18T04:24:05.702Z,959.80
2022-11-18T04:25:05.618Z,959.81
2022-11-18T04:26:05.538Z,959.80
2022-11-18T04:27:05.455Z,959.83
2022-11-18T04:28:05.373Z,959.84
2022-11-18T04:29:05.291Z,959.84
2022-11-18T04:30:05.206Z,959.89
2022-11-18T04:31:05.129Z,959.88
2022-11-18T04:32:05.055Z,959.90
2022-11-18T04:33:04.967Z,959.87
2022-11-18T04:34:04.876Z,959.88
2022-11-18T04:35:04.802Z,959.84
2022-11-18T04:36:04.713Z,959.86
2022-11-18T04:37:04.641Z,959.88
2022-11-18T04:38:05.198Z,959.89
2022-11-18T04:39:04.468Z,959.88
2022-11-18T04:40:04.426Z,959.91
2022-11-18T04:41:04.302Z,959.92
2022-11-18T04:42:04.233Z,959.88
2022-11-18T04:43:04.145Z,959.88
2022-11-18T04:44:04.057Z,959.88
2022-11-18T04:45:04.000Z,959.82
2022-11-18T04:46:03.895Z,959.88
2022-11-18T04:47:03.809Z,959.86
2022-11-18T04:48:04.095Z,959.86
2022-11-18T04:49:03.650Z,959.89
2022-11-18T04:50:03.567Z,959.87
2022-11-18T04:51:03.483Z,959.85
2022-11-18T04:52:03.397Z,959.83
2022-11-18T04:53:03.323Z,959.85
2022-11-18T04:54:03.235Z,959.82
2022-11-18T04:55:03.156Z,959.85
2022-11-18T04:56:03.070Z,959.87
2022-11-18T04:57:02.994Z,959.90
2022-11-18T04:58:02.911Z,959.89
2022-11-18T04:59:02.827Z,959.90
2022-11-18T05:00:02.745Z,959.92
2022-11-18T05:01:02.683Z,959.89
2022-11-18T05:02:02.577Z,959.89
2022-11-18T05:03:02.500Z,959.95
2022-11-18T05:04:02.414Z,959.95
2022-11-18T05:05:02.334Z,959.97
2022-11-18T05:06:02.266Z,959.98
2022-11-18T05:07:02.243Z,959.93
2022-11-18T05:08:02.087Z,959.89
2022-11-18T05:09:02.006Z,959.91
2022-11-18T05:10:01.928Z,959.87
2022-11-18T05:11:01.836Z,959.85
2022-11-18T05:12:01.787Z,959.85
2022-11-18T05:13:01.679Z,959.85
2022-11-18T05:14:01.592Z,959.85
2022-11-18T05:15:01.520Z,959.87
2022-11-18T05:16:01.429Z,959.88
2022-11-18T05:17:01.349Z,959.85
2022-11-18T05:18:01.265Z,959.84
2022-11-18T05:19:01.180Z,959.88
2022-11-18T05:20:01.099Z,959.86
2022-11-18T05:21:01.021Z,959.86
2022-11-18T05:22:00.939Z,959.84
2022-11-18T05:23:00.854Z,959.85
2022-11-18T05:24:00.796Z,959.85
2022-11-18T05:25:00.690Z,959.84
2022-11-18T05:26:02.535Z,959.85
2022-11-18T05:27:00.527Z,959.90
2022-11-18T05:28:00.440Z,959.87
2022-11-18T05:29:00.360Z,959.88
2022-11-18T05:30:00.279Z,959.88
2022-11-18T05:31:00.193Z,959.91
2022-11-18T05:32:00.117Z,959.91
2022-11-18T05:33:00.028Z,959.94
2022-11-18T05:33:59.947Z,959.91
2022-11-18T05:34:59.866Z,959.91
2022-11-18T05:35:59.783Z,959.93
2022-11-18T05:36:59.699Z,959.94
2022-11-18T05:37:59.622Z,959.93
2022-11-18T05:38:59.542Z,959.97
2022-11-18T05:39:59.461Z,959.98
2022-11-18T05:40:59.376Z,959.96
2022-11-18T05:41:59.295Z,959.99
2022-11-18T05:42:59.207Z,960.01
2022-11-18T05:43:59.189Z,960.01
2022-11-18T05:44:59.272Z,959.98
2022-11-18T05:45:58.965Z,960.04
2022-11-18T05:46:58.882Z,960.00
2022-11-18T05:47:58.803Z,959.98
2022-11-18T05:48:58.730Z,960.00
2022-11-18T05:49:58.642Z,960.02
2022-11-18T05:50:58.551Z,960.03
2022-11-18T05:51:58.473Z,960.04
2022-11-18T05:52:58.387Z,960.05
2022-11-18T05:53:58.313Z,960.02
2022-11-18T05:54:58.226Z,960.05
2022-11-18T05:55:58.140Z,960.11
2022-11-18T05:56:58.066Z,960.12
2022-11-18T05:57:57.983Z,960.12
2022-11-18T05:58:57.897Z,960.13
2022-11-18T05:59:57.818Z,960.11
2022-11-18T06:00:57.734Z,960.12
2022-11-18T06:01:57.648Z,960.13
2022-11-18T06:02:57.575Z,960.15
2022-11-18T06:03:57.484Z,960.13
2022-11-18T06:04:57.399Z,960.13
2022-11-18T06:05:57.326Z,960.12
2022-11-18T06:06:57.266Z,960.14
2022-11-18T06:07:57.161Z,960.14
2022-11-18T06:08:57.074Z,960.12
2022-11-18T06:09:59.784Z,960.13
2022-11-18T06:10:56.913Z,960.14
2022-11-18T06:11:56.833Z,960.15
2022-11-18T06:12:56.819Z,960.17
2022-11-18T06:13:56.667Z,960.20
2022-11-18T06:14:56.582Z,960.18
2022-11-18T06:15:56.501Z,960.21
2022-11-18T06:16:56.421Z,960.25
2022-11-18T06:17:56.339Z,960.20
2022-11-18T06:18:56.256Z,960.22
2022-11-18T06:19:56.176Z,960.23
2022-11-18T06:20:56.090Z,960.20
2022-11-18T06:21:56.011Z,960.26
2022-11-18T06:22:55.932Z,960.29
2022-11-18T06:23:55.841Z,960.32
2022-11-18T06:24:55.763Z,960.33
2022-11-18T06:25:55.685Z,960.35
2022-11-18T06:26:55.596Z,960.33
2022-11-18T06:27:55.517Z,960.38
2022-11-18T06:28:55.438Z,960.37
2022-11-18T06:29:55.351Z,960.37
2022-11-18T06:30:55.267Z,960.41
2022-11-18T06:31:55.194Z,960.40
2022-11-18T06:32:55.101Z,960.40
2022-11-18T06:33:55.022Z,960.47
2022-11-18T06:34:54.943Z,960.42
2022-11-18T06:35:54.858Z,960.46
2022-11-18T06:36:54.773Z,960.46
2022-11-18T06:37:54.701Z,960.47
2022-11-18T06:38:54.618Z,960.46
2022-11-18T06:39:55.372Z,960.46
2022-11-18T06:40:54.451Z,960.49
2022-11-18T06:41:54.370Z,960.48
2022-11-18T06:42:54.284Z,960.53
2022-11-18T06:43:54.210Z,960.50
2022-11-18T06:44:54.242Z,960.54
2022-11-18T06:45:54.044Z,960.55
2022-11-18T06:46:53.954Z,960.56
2022-11-18T06:47:53.876Z,960.57
2022-11-18T06:48:53.792Z,960.58
2022-11-18T06:49:53.714Z,960.58
2022-11-18T06:50:53.626Z,960.62
2022-11-18T06:51:53.550Z,960.62
2022-11-18T06:52:53.470Z,960.60
2022-11-18T06:53:53.384Z,960.63
2022-11-18T06:54:53.302Z,960.66
2022-11-18T06:55:53.219Z,960.64
2022-11-18T06:56:53.140Z,960.65
2022-11-18T06:57:53.065Z,960.68
2022-11-18T06:58:52.976Z,960.69
2022-11-18T06:59:56.494Z,960.73
2022-11-18T07:00:52.849Z,960.72
2022-11-18T07:01:52.728Z,960.78
2022-11-18T07:02:52.645Z,960.75
2022-11-18T07:03:52.564Z,960.78
2022-11-18T07:04:52.478Z,960.81
2022-11-18T07:05:52.409Z,960.84
2022-11-18T07:06:52.497Z,960.88
2022-11-18T07:07:52.330Z,960.89
2022-11-18T07:08:52.159Z,960.91
2022-11-18T07:09:52.072Z,960.93
2022-11-18T07:10:51.990Z,960.95
2022-11-18T07:11:51.908Z,960.99
2022-11-18T07:12:51.825Z,961.00
2022-11-18T07:13:51.747Z,960.98
2022-11-18T07:14:51.662Z,961.01
2022-11-18T07:15:51.582Z,961.02
2022-11-18T07:16:51.502Z,961.08
2022-11-18T07:17:51.417Z,961.07
2022-11-18T07:18:51.335Z,961.09
2022-11-18T07:19:51.254Z,961.10
2022-11-18T07:20:51.170Z,961.13
2022-11-18T07:21:51.093Z,961.15
2022-11-18T07:22:51.003Z,961.10
2022-11-18T07:23:50.927Z,961.13
2022-11-18T07:24:50.840Z,961.14
2022-11-18T07:25:50.764Z,961.11
2022-11-18T07:26:50.680Z,961.12
2022-11-18T07:27:50.596Z,961.15
2022-11-18T07:28:50.519Z,961.12
2022-11-18T07:29:50.440Z,961.13
2022-11-18T07:30:50.348Z,961.18
2022-11-18T07:31:50.268Z,961.17
2022-11-18T07:32:50.190Z,961.13
2022-11-18T07:33:50.104Z,961.12
2022-11-18T07:34:50.020Z,961.15
2022-11-18T07:35:49.947Z,961.17
2022-11-18T07:36:49.865Z,961.15
2022-11-18T07:37:49.781Z,961.17
2022-11-18T07:38:49.703Z,961.18
2022-11-18T07:39:49.619Z,961.19
2022-11-18T07:40:49.530Z,961.22
2022-11-18T07:41:49.450Z,961.21
2022-11-18T07:42:49.364Z,961.20
2022-11-18T07:43:49.285Z,961.23
2022-11-18T07:44:49.202Z,961.20
2022-11-18T07:45:49.123Z,961.21
2022-11-18T07:46:49.038Z,961.23
2022-11-18T07:47:48.957Z,961.24
2022-11-18T07:48:48.889Z,961.27
2022-11-18T07:49:48.804Z,961.31
2022-11-18T07:50:48.715Z,961.31
2022-11-18T07:51:48.640Z,961.31
2022-11-18T07:52:48.548Z,961.33
2022-11-18T07:53:48.467Z,961.36
2022-11-18T07:54:48.387Z,961.37
2022-11-18T07:55:48.309Z,961.36
2022-11-18T07:56:48.226Z,961.34
2022-11-18T07:57:48.140Z,961.40
2022-11-18T07:58:48.054Z,961.39
2022-11-18T07:59:47.980Z,961.42
2022-11-18T08:00:47.894Z,961.43
2022-11-18T08:01:47.898Z,961.40
2022-11-18T08:02:47.733Z,961.45
2022-11-18T08:03:47.661Z,961.48
2022-11-18T08:04:47.634Z,961.47
2022-11-18T08:05:47.486Z,961.44
2022-11-18T08:06:47.401Z,961.46
2022-11-18T08:07:47.324Z,961.45
2022-11-18T08:08:47.242Z,961.50
2022-11-18T08:09:47.157Z,961.54
2022-11-18T08:10:47.087Z,961.55
2022-11-18T08:11:46.995Z,961.52
2022-11-18T08:12:46.912Z,961.55
2022-11-18T08:13:46.832Z,961.53
2022-11-18T08:14:46.749Z,961.56
2022-11-18T08:15:46.671Z,961.58
2022-11-18T08:16:46.588Z,961.57
2022-11-18T08:17:46.505Z,961.54
2022-11-18T08:18:46.420Z,961.54
2022-11-18T08:19:46.341Z,961.52
2022-11-18T08:20:46.255Z,961.55
2022-11-18T08:21:46.174Z,961.53
2022-11-18T08:22:46.093Z,961.55
2022-11-18T08:23:46.010Z,961.58
2022-11-18T08:24:45.927Z,961.58
2022-11-18T08:25:45.845Z,961.62
2022-11-18T08:26:45.790Z,961.59
2022-11-18T08:27:45.692Z,961.56
2022-11-18T08:28:45.627Z,961.58
2022-11-18T08:29:45.520Z,961.59
2022-11-18T08:30:45.438Z,961.62
2022-11-18T08:31:45.361Z,961.60
2022-11-18T08:32:45.277Z,961.60
2022-11-18T08:33:45.192Z,961.61
2022-11-18T08:34:45.107Z,961.64
2022-11-18T08:35:45.030Z,961.63
2022-11-18T08:36:44.944Z,961.62
2022-11-18T08:37:44.867Z,961.60
2022-11-18T08:38:44.786Z,961.65
2022-11-18T08:39:44.705Z,961.66
2022-11-18T08:40:44.619Z,961.68
2022-11-18T08:41:44.537Z,961.69
2022-11-18T08:42:44.454Z,961.73
2022-11-18T08:43:44.372Z,961.71
2022-11-18T08:44:44.295Z,961.69
2022-11-18T08:45:44.214Z,961.75
2022-11-18T08:46:44.125Z,961.74
2022-11-18T08:47:44.045Z,961.77
2022-11-18T08:48:43.967Z,961.76
2022-11-18T08:49:43.884Z,961.79
2022-11-18T08:50:43.799Z,961.81
2022-11-18T08:51:43.719Z,961.84
2022-11-18T08:52:43.647Z,961.81
2022-11-18T08:53:43.555Z,961.80
2022-11-18T08:54:43.479Z,961.86
2022-11-18T08:55:43.397Z,961.82
2022-11-18T08:56:43.319Z,961.86
2022-11-18T08:57:43.230Z,961.85
2022-11-18T08:58:43.151Z,961.86
2022-11-18T08:59:43.068Z,961.81
2022-11-18T09:00:42.978Z,961.83
2022-11-18T09:01:42.941Z,961.85
2022-11-18T09:02:42.820Z,961.87
2022-11-18T09:03:42.737Z,961.84
2022-11-18T09:04:42.662Z,961.88
2022-11-18T09:05:42.578Z,961.86
2022-11-18T09:06:42.491Z,961.86
2022-11-18T09:07:42.524Z,961.88
2022-11-18T09:08:42.332Z,961.88
2022-11-18T09:09:42.248Z,961.88
2022-11-18T09:10:42.171Z,961.92
2022-11-18T09:11:42.084Z,961.91
2022-11-18T09:12:42.001Z,961.94
2022-11-18T09:14:46.547Z,961.95
2022-11-18T09:15:41.755Z,961.99
2022-11-18T09:16:41.679Z,961.98
2022-11-18T09:17:41.602Z,961.98
2022-11-18T09:18:41.510Z,961.95
2022-11-18T09:19:48.680Z,962.00
2022-11-18T09:20:41.350Z,961.98
2022-11-18T09:21:41.270Z,961.99
2022-11-18T09:22:41.182Z,961.97
2022-11-18T09:23:41.106Z,961.99
2022-11-18T09:24:41.032Z,962.03
2022-11-18T09:25:40.937Z,962.04
2022-11-18T09:26:40.854Z,962.07
2022-11-18T09:27:40.775Z,962.07
2022-11-18T09:28:40.690Z,962.05
2022-11-18T09:29:40.613Z,962.08
2022-11-18T09:30:40.528Z,962.11
2022-11-18T09:31:40.451Z,962.14
2022-11-18T09:32:40.371Z,962.13
2022-11-18T09:33:40.289Z,962.17
2022-11-18T09:34:40.210Z,962.16
2022-11-18T09:35:40.121Z,962.19
2022-11-18T09:36:40.041Z,962.19
2022-11-18T09:37:39.962Z,962.20
2022-11-18T09:38:39.877Z,962.17
2022-11-18T09:39:39.796Z,962.22
2022-11-18T09:40:39.716Z,962.24
2022-11-18T09:41:39.628Z,962.26
2022-11-18T09:42:39.552Z,962.22
2022-11-18T09:43:39.466Z,962.25
2022-11-18T09:44:39.384Z,962.24
2022-11-18T09:45:39.302Z,962.24
2022-11-18T09:46:39.223Z,962.25
2022-11-18T09:47:39.140Z,962.27
2022-11-18T09:48:39.056Z,962.24
2022-11-18T09:49:38.977Z,962.26
2022-11-18T09:50:54.210Z,962.25
2022-11-18T09:51:38.808Z,962.25
2022-11-18T09:52:38.727Z,962.27
2022-11-18T09:53:38.648Z,962.28
2022-11-18T09:54:38.566Z,962.28
2022-11-18T09:55:38.489Z,962.26
2022-11-18T09:56:38.474Z,962.30
2022-11-18T09:57:38.321Z,962.25
2022-11-18T09:58:38.248Z,962.26
2022-11-18T09:59:38.158Z,962.27
2022-11-18T10:00:38.079Z,962.26
2022-11-18T10:01:38.014Z,962.35
2022-11-18T10:02:37.917Z,962.32
2022-11-18T10:03:37.827Z,962.35
2022-11-18T10:04:37.752Z,962.37
2022-11-18T10:05:37.671Z,962.34
2022-11-18T10:06:37.583Z,962.35
2022-11-18T10:07:37.642Z,962.37
2022-11-18T10:08:37.424Z,962.37
2022-11-18T10:09:37.340Z,962.37
2022-11-18T10:10:37.262Z,962.40
2022-11-18T10:11:40.419Z,962.41
2022-11-18T10:12:37.098Z,962.43
2022-11-18T10:13:37.010Z,962.40
2022-11-18T10:14:36.931Z,962.40
2022-11-18T10:15:36.856Z,962.38
2022-11-18T10:16:36.765Z,962.42
2022-11-18T10:17:36.687Z,962.40
2022-11-18T10:19:05.129Z,962.44
2022-11-18T10:19:36.523Z,962.42
2022-11-18T10:20:36.439Z,962.46
2022-11-18T10:21:36.365Z,962.45
2022-11-18T10:22:36.281Z,962.48
2022-11-18T10:23:36.198Z,962.48
2022-11-18T10:24:36.114Z,962.48
2022-11-18T10:25:36.039Z,962.47
2022-11-18T10:26:35.953Z,962.49
2022-11-18T10:27:35.864Z,962.49
2022-11-18T10:28:35.790Z,962.45
2022-11-18T10:29:35.707Z,962.49
2022-11-18T10:30:35.631Z,962.48
2022-11-18T10:31:35.540Z,962.49
2022-11-18T10:32:35.462Z,962.48
2022-11-18T10:33:35.381Z,962.48
2022-11-18T10:34:35.304Z,962.50
2022-11-18T10:35:35.213Z,962.52
2022-11-18T10:36:35.136Z,962.52
2022-11-18T10:38:05.681Z,962.56
2022-11-18T10:38:34.971Z,962.52
2022-11-18T10:39:34.887Z,962.52
2022-11-18T10:40:34.810Z,962.54
2022-11-18T10:41:34.728Z,962.57
2022-11-18T10:42:34.645Z,962.56
2022-11-18T10:43:34.565Z,962.54
2022-11-18T10:44:34.485Z,962.54
2022-11-18T10:45:34.403Z,962.59
2022-11-18T10:46:34.320Z,962.58
2022-11-18T10:47:34.250Z,962.57
2022-11-18T10:48:34.155Z,962.58
2022-11-18T10:49:34.075Z,962.59
2022-11-18T10:50:33.994Z,962.61
2022-11-18T10:51:33.907Z,962.59
2022-11-18T10:52:33.829Z,962.59
2022-11-18T10:53:33.746Z,962.61
2022-11-18T10:54:33.663Z,962.57
2022-11-18T10:55:33.585Z,962.61
2022-11-18T10:56:33.503Z,962.59
2022-11-18T10:57:33.417Z,962.58
2022-11-18T10:58:33.343Z,962.59
2022-11-18T10:59:33.254Z,962.62
2022-11-18T11:00:33.247Z,962.60
2022-11-18T11:01:33.121Z,962.61
2022-11-18T11:02:33.011Z,962.58
2022-11-18T11:03:32.933Z,962.57
2022-11-18T11:04:32.851Z,962.60
2022-11-18T11:05:32.769Z,962.59
2022-11-18T11:06:32.684Z,962.58
2022-11-18T11:07:32.817Z,962.60
2022-11-18T11:08:37.330Z,962.58
2022-11-18T11:09:32.441Z,962.62
2022-11-18T11:10:32.361Z,962.63
2022-11-18T11:11:32.286Z,962.68
2022-11-18T11:12:32.201Z,962.65
2022-11-18T11:13:32.114Z,962.66
2022-11-18T11:14:32.032Z,962.65
2022-11-18T11:15:31.950Z,962.65
2022-11-18T11:16:31.880Z,962.65
2022-11-18T11:17:31.860Z,962.65
2022-11-18T11:18:31.708Z,962.65
2022-11-18T11:19:31.621Z,962.68
2022-11-18T11:20:31.542Z,962.70
2022-11-18T11:21:31.464Z,962.68
2022-11-18T11:22:31.381Z,962.68
2022-11-18T11:23:31.302Z,962.68
2022-11-18T11:24:31.221Z,962.68
2022-11-18T11:28:30.903Z,962.71
2022-11-18T11:29:30.818Z,962.72
2022-11-18T11:30:30.728Z,962.74
2022-11-18T11:31:30.663Z,962.75
2022-11-18T11:32:30.621Z,962.73
2022-11-18T11:33:30.484Z,962.75
2022-11-18T11:34:30.402Z,962.73
2022-11-18T11:35:30.325Z,962.71
2022-11-18T11:36:30.248Z,962.73
2022-11-18T11:37:30.161Z,962.74
2022-11-18T11:38:30.077Z,962.72
2022-11-18T11:39:30.001Z,962.72
2022-11-18T11:40:29.919Z,962.76
2022-11-18T11:41:29.835Z,962.74
2022-11-18T11:42:29.751Z,962.72
2022-11-18T11:43:29.670Z,962.75
2022-11-18T11:44:29.592Z,962.76
2022-11-18T11:45:29.508Z,962.77
2022-11-18T11:46:29.431Z,962.75
2022-11-18T11:47:29.345Z,962.76
2022-11-18T11:48:29.273Z,962.75
2022-11-18T11:49:29.196Z,962.75
2022-11-18T11:50:29.099Z,962.75
2022-11-18T11:51:29.015Z,962.75
2022-11-18T11:52:28.945Z,962.79
2022-11-18T11:53:28.858Z,962.76
2022-11-18T11:54:28.773Z,962.75
2022-11-18T11:55:28.691Z,962.77
2022-11-18T11:56:28.608Z,962.81
2022-11-18T11:57:28.533Z,962.84
2022-11-18T11:58:28.447Z,962.82
2022-11-18T11:59:28.372Z,962.83
2022-11-18T12:00:28.287Z,962.82
2022-11-18T12:01:28.207Z,962.83
2022-11-18T12:02:28.139Z,962.84
2022-11-18T12:03:28.041Z,962.85
2022-11-18T12:04:27.963Z,962.88
2022-11-18T12:05:27.877Z,962.84
2022-11-18T12:06:27.796Z,962.83
2022-11-18T12:07:27.782Z,962.89
2022-11-18T12:08:27.632Z,962.86
2022-11-18T12:09:27.556Z,962.94
2022-11-18T12:10:27.468Z,962.90
2022-11-18T12:11:27.388Z,962.87
2022-11-18T12:12:27.313Z,962.87
2022-11-18T12:13:27.228Z,962.92
2022-11-18T12:14:27.148Z,962.93
2022-11-18T12:15:27.069Z,962.93
2022-11-18T12:16:26.982Z,962.95
2022-11-18T12:17:26.904Z,962.89
2022-11-18T12:18:26.821Z,962.91
2022-11-18T12:19:26.738Z,962.91
2022-11-18T12:20:26.656Z,962.94
2022-11-18T12:21:29.880Z,962.90
2022-11-18T12:22:26.489Z,962.94
2022-11-18T12:23:26.422Z,962.92
2022-11-18T12:24:26.331Z,962.93
2022-11-18T12:25:26.247Z,962.91
2022-11-18T12:26:26.163Z,962.95
2022-11-18T12:27:26.083Z,962.86
2022-11-18T12:28:26.006Z,962.91
2022-11-18T12:29:25.927Z,962.91
2022-11-18T12:30:25.836Z,962.93
2022-11-18T12:31:25.762Z,962.94